Time;durP1;ratioP1;P1;durP2;ratioP2;P2;SDS_P1;SDS_P2;PMS_P1;PMS_P2;Temp;Humidity;BMP_temperature;BMP_pressure;BME280_temperature;BME280_humidity;BME280_pressure;Samples;Min_cycle;Max_cycle;Signal;HPM_P1;HPM_P2
2021/01/31 00:00:45;;;;;;;1999.90;999.90;;;2.20;99.90;;;;;;5062518;28;20192;-81
2021/01/31 00:03:13;;;;;;;1999.90;999.90;;;2.10;99.90;;;;;;5062937;28;20164;-81
2021/01/31 00:05:40;;;;;;;1999.90;999.90;;;2.10;99.90;;;;;;5062387;28;20173;-81
2021/01/31 00:08:10;;;;;;;1999.90;999.90;;;2.10;99.90;;;;;;5063896;28;20711;-81
2021/01/31 00:10:36;;;;;;;1999.90;999.90;;;2.00;99.90;;;;;;5063908;28;20260;-81
2021/01/31 00:13:03;;;;;;;1999.90;999.90;;;2.00;99.90;;;;;;5063849;28;20192;-81
2021/01/31 00:15:32;;;;;;;1999.90;999.90;;;2.10;99.90;;;;;;5062543;28;20408;-82
2021/01/31 00:18:01;;;;;;;1999.90;999.90;;;2.10;99.90;;;;;;5062661;28;20165;-81
2021/01/31 00:20:30;;;;;;;1999.90;999.90;;;2.10;99.90;;;;;;5062718;28;20176;-81
2021/01/31 00:22:56;;;;;;;1999.90;999.90;;;2.10;99.90;;;;;;5063592;28;20176;-81
2021/01/31 00:25:21;;;;;;;1999.90;999.90;;;2.10;99.90;;;;;;5062435;28;20194;-81
2021/01/31 00:27:47;;;;;;;1999.90;999.90;;;2.10;99.90;;;;;;5062053;28;20187;-81
2021/01/31 00:30:19;;;;;;;1999.90;999.90;;;2.00;99.90;;;;;;5064055;28;20172;-81
2021/01/31 00:32:45;;;;;;;1999.90;999.90;;;2.00;99.90;;;;;;5063590;28;20398;-81
2021/01/31 00:35:11;;;;;;;1999.90;999.90;;;2.00;99.90;;;;;;5064258;28;20176;-81
2021/01/31 00:37:37;;;;;;;1999.90;999.90;;;2.00;99.90;;;;;;5063993;28;20168;-81
2021/01/31 00:40:05;;;;;;;1999.90;999.90;;;2.00;99.90;;;;;;5063498;28;20175;-81
2021/01/31 00:42:31;;;;;;;1999.90;999.90;;;2.00;99.90;;;;;;5062529;28;20165;-81
2021/01/31 00:44:56;;;;;;;1999.90;999.90;;;2.00;99.90;;;;;;5062643;28;20556;-81
2021/01/31 00:47:22;;;;;;;1999.90;999.90;;;2.10;99.90;;;;;;5063216;28;20165;-81
2021/01/31 00:49:50;;;;;;;1999.90;999.90;;;2.00;99.90;;;;;;5060702;28;20168;-81
2021/01/31 00:52:16;;;;;;;1999.90;999.90;;;2.00;99.90;;;;;;5063106;28;20267;-81
2021/01/31 00:54:42;;;;;;;1999.90;999.90;;;1.90;99.90;;;;;;5062880;28;20240;-81
2021/01/31 00:57:08;;;;;;;1999.90;999.90;;;2.00;99.90;;;;;;5061811;28;20188;-81
2021/01/31 00:59:34;;;;;;;1999.90;999.90;;;2.00;99.90;;;;;;5062710;28;20160;-81
2021/01/31 01:02:04;;;;;;;1999.90;999.90;;;2.00;99.90;;;;;;5062696;28;20200;-81
2021/01/31 01:04:30;;;;;;;1999.90;999.90;;;2.00;99.90;;;;;;5062228;28;20196;-81
2021/01/31 01:06:56;;;;;;;1999.90;999.90;;;2.00;99.90;;;;;;5062834;28;20217;-81
2021/01/31 01:09:21;;;;;;;1999.90;999.90;;;2.00;99.90;;;;;;5061057;28;20173;-81
2021/01/31 01:11:47;;;;;;;1999.90;999.90;;;2.00;99.90;;;;;;5061765;28;20173;-81
2021/01/31 01:14:13;;;;;;;1999.90;999.90;;;2.00;99.90;;;;;;5061696;28;20515;-81
2021/01/31 01:16:38;;;;;;;1999.90;999.90;;;2.10;99.90;;;;;;5062843;28;20164;-81
2021/01/31 01:19:04;;;;;;;1999.90;999.90;;;2.00;99.90;;;;;;5061614;28;20175;-81
2021/01/31 01:21:31;;;;;;;1999.90;999.90;;;2.00;99.90;;;;;;5062469;28;20163;-81
2021/01/31 01:23:58;;;;;;;1999.90;999.90;;;2.00;99.90;;;;;;5062126;28;20690;-81
2021/01/31 01:26:30;;;;;;;1999.90;999.90;;;1.90;99.90;;;;;;5062139;28;20161;-81
2021/01/31 01:28:56;;;;;;;1999.90;999.90;;;1.80;99.90;;;;;;5062906;28;20179;-82
2021/01/31 01:31:23;;;;;;;1999.90;999.90;;;1.80;99.90;;;;;;5062256;28;20168;-81
2021/01/31 01:33:49;;;;;;;1999.90;999.90;;;1.80;99.90;;;;;;5062220;28;20535;-82
2021/01/31 01:36:15;;;;;;;1999.90;999.90;;;1.70;99.90;;;;;;5062734;28;20169;-81
2021/01/31 01:38:40;;;;;;;1999.90;999.90;;;1.70;99.90;;;;;;5061820;28;20224;-81
2021/01/31 01:41:06;;;;;;;1999.90;999.90;;;1.80;99.90;;;;;;5062488;28;20182;-81
2021/01/31 01:43:32;;;;;;;1999.90;999.90;;;1.70;99.90;;;;;;5062691;28;20208;-81
2021/01/31 01:46:18;;;;;;;1999.90;999.90;;;1.70;99.90;;;;;;5062309;28;20623;-81
2021/01/31 01:48:53;;;;;;;1999.90;999.90;;;1.70;99.90;;;;;;5061797;28;20620;-81
2021/01/31 01:51:27;;;;;;;1999.90;999.90;;;1.70;99.90;;;;;;5155472;22;20228;-85
2021/01/31 01:53:53;;;;;;;1999.90;999.90;;;1.70;99.90;;;;;;5055579;28;20156;-85
2021/01/31 01:56:28;;;;;;;1999.90;999.90;;;1.70;99.90;;;;;;5056337;28;20218;-85
2021/01/31 01:58:57;;;;;;;1999.90;999.90;;;1.70;99.90;;;;;;5038641;28;20642;-85
2021/01/31 02:01:24;;;;;;;1999.90;999.90;;;1.60;99.90;;;;;;5056047;28;20161;-85
2021/01/31 02:03:55;;;;;;;1999.90;999.90;;;1.70;99.90;;;;;;5038652;28;20212;-85
2021/01/31 02:06:27;;;;;;;1999.90;999.90;;;1.70;99.90;;;;;;5055009;28;20151;-85
2021/01/31 02:08:55;;;;;;;1999.90;999.90;;;1.60;99.90;;;;;;5054947;28;20168;-85
2021/01/31 02:11:22;;;;;;;1999.90;999.90;;;1.60;99.90;;;;;;5037278;28;20160;-85
2021/01/31 02:13:56;;;;;;;1999.90;999.90;;;1.50;99.90;;;;;;5037674;28;20172;-82
2021/01/31 02:16:47;;;;;;;1999.90;999.90;;;1.40;99.90;;;;;;5055263;28;20187;-82
2021/01/31 02:19:25;;;;;;;1999.90;999.90;;;1.40;99.90;;;;;;5038247;28;20259;-82
2021/01/31 02:22:02;;;;;;;1999.90;999.90;;;1.40;99.90;;;;;;5055517;28;20523;-82
2021/01/31 02:24:56;;;;;;;1999.90;999.90;;;1.40;99.90;;;;;;5055616;28;20176;-83
2021/01/31 02:27:50;;;;;;;1999.90;999.90;;;1.40;99.90;;;;;;5037500;28;20192;-82
2021/01/31 02:30:30;;;;;;;1999.90;999.90;;;1.40;99.90;;;;;;5037043;28;20161;-82
2021/01/31 02:33:23;;;;;;;1999.90;999.90;;;1.50;99.90;;;;;;5038078;28;20630;-82
2021/01/31 02:35:57;;;;;;;1999.90;999.90;;;1.50;99.90;;;;;;5055306;28;20153;-83
2021/01/31 02:38:37;;;;;;;1999.90;999.90;;;1.50;99.90;;;;;;5055564;28;20149;-82
2021/01/31 02:41:12;;;;;;;1999.90;999.90;;;1.40;99.90;;;;;;5055519;28;20145;-82
2021/01/31 02:43:50;;;;;;;1999.90;999.90;;;1.40;99.90;;;;;;5055377;28;20180;-82
2021/01/31 02:46:32;;;;;;;1999.90;999.90;;;1.40;99.90;;;;;;5037474;28;20496;-82
2021/01/31 02:49:13;;;;;;;1999.90;999.90;;;1.30;99.90;;;;;;5037195;28;20247;-82
2021/01/31 02:52:00;;;;;;;1999.90;999.90;;;1.30;99.90;;;;;;5058961;28;20172;-82
2021/01/31 02:54:36;;;;;;;1999.90;999.90;;;1.30;99.90;;;;;;5058934;28;20179;-82
2021/01/31 02:57:16;;;;;;;1999.90;999.90;;;1.20;99.90;;;;;;5041295;28;20167;-83
2021/01/31 03:00:09;;;;;;;1999.90;999.90;;;1.10;99.90;;;;;;5059154;28;20188;-83
2021/01/31 03:02:43;;;;;;;1999.90;999.90;;;1.20;99.90;;;;;;4995874;28;20183;-82
2021/01/31 03:05:17;;;;;;;1999.90;999.90;;;1.10;99.90;;;;;;5059048;28;20219;-83
2021/01/31 03:08:16;;;;;;;1999.90;999.90;;;1.10;99.90;;;;;;5040983;28;20156;-83
2021/01/31 03:11:07;;;;;;;1999.90;999.90;;;1.10;99.90;;;;;;5041042;28;20505;-83
2021/01/31 03:13:51;;;;;;;1999.90;999.90;;;1.10;99.90;;;;;;5058988;28;20153;-83
2021/01/31 03:16:43;;;;;;;1999.90;999.90;;;1.10;99.90;;;;;;5058687;28;20164;-83
2021/01/31 03:19:28;;;;;;;1999.90;999.90;;;1.00;99.90;;;;;;5040919;28;20161;-83
2021/01/31 03:22:02;;;;;;;1999.90;999.90;;;1.00;99.90;;;;;;5023533;28;20664;-82
2021/01/31 03:24:59;;;;;;;1999.90;999.90;;;1.00;99.90;;;;;;5059008;28;20183;-82
2021/01/31 03:27:32;;;;;;;1999.90;999.90;;;1.00;99.90;;;;;;5024755;28;20173;-83
2021/01/31 03:29:58;;;;;;;1999.90;999.90;;;1.00;99.90;;;;;;5040833;28;20156;-83
2021/01/31 03:32:32;;;;;;;1999.90;999.90;;;1.10;99.90;;;;;;5040562;28;20567;-82
2021/01/31 03:35:16;;;;;;;1999.90;999.90;;;1.10;99.90;;;;;;5058288;28;20149;-82
2021/01/31 03:37:52;;;;;;;1999.90;999.90;;;1.00;99.90;;;;;;5058804;28;20152;-82
2021/01/31 03:40:18;;;;;;;1999.90;999.90;;;0.90;99.90;;;;;;5058457;28;20256;-83
2021/01/31 03:42:45;;;;;;;1999.90;999.90;;;0.90;99.90;;;;;;5040585;28;20539;-83
2021/01/31 03:45:13;;;;;;;1999.90;999.90;;;0.90;99.90;;;;;;5058287;28;20181;-83
2021/01/31 03:48:18;;;;;;;1999.90;999.90;;;0.80;99.90;;;;;;5058593;28;20527;-82
2021/01/31 03:50:44;;;;;;;1999.90;999.90;;;0.90;99.90;;;;;;5003110;28;20188;-82
2021/01/31 03:53:11;;;;;;;1999.90;999.90;;;0.90;99.90;;;;;;5058485;28;20181;-82
2021/01/31 03:55:41;;;;;;;1999.90;999.90;;;0.80;99.90;;;;;;5040575;28;20176;-82
2021/01/31 03:58:09;;;;;;;1999.90;999.90;;;0.70;99.90;;;;;;5058210;28;20636;-82
2021/01/31 04:00:39;;;;;;;1999.90;999.90;;;0.60;99.90;;;;;;5058978;28;20761;-82
2021/01/31 04:03:37;;;;;;;1999.90;999.90;;;0.60;99.90;;;;;;5040494;28;20566;-82
2021/01/31 04:06:17;;;;;;;1999.90;999.90;;;0.60;99.90;;;;;;5045008;28;20594;-82
2021/01/31 04:08:45;;;;;;;1999.90;999.90;;;0.60;99.90;;;;;;5058582;28;20152;-82
2021/01/31 04:11:11;;;;;;;1999.90;999.90;;;0.60;99.90;;;;;;5040483;28;20535;-82
2021/01/31 04:13:36;;;;;;;1999.90;999.90;;;0.60;99.90;;;;;;5059064;28;20169;-82
2021/01/31 04:16:06;;;;;;;1999.90;999.90;;;0.60;99.90;;;;;;5040580;28;20411;-82
2021/01/31 04:18:32;;;;;;;1999.90;999.90;;;0.60;99.90;;;;;;5058034;28;20571;-82
2021/01/31 04:20:58;;;;;;;1999.90;999.90;;;0.60;99.90;;;;;;5057474;28;20168;-82
2021/01/31 04:23:24;;;;;;;1999.90;999.90;;;0.50;99.90;;;;;;5058083;28;20438;-83
2021/01/31 04:25:50;;;;;;;1999.90;999.90;;;0.50;99.90;;;;;;5058363;28;20403;-82
2021/01/31 04:28:22;;;;;;;1999.90;999.90;;;0.60;99.90;;;;;;5058020;28;20239;-82
2021/01/31 04:30:55;;;;;;;1999.90;999.90;;;0.60;99.90;;;;;;5040220;28;20161;-82
2021/01/31 04:33:21;;;;;;;1999.90;999.90;;;0.50;99.90;;;;;;5058117;28;20684;-82
2021/01/31 04:35:47;;;;;;;1999.90;999.90;;;0.50;99.90;;;;;;5058365;28;20200;-82
2021/01/31 04:38:12;;;;;;;1999.90;999.90;;;0.60;99.90;;;;;;5040563;28;20489;-82
2021/01/31 04:40:38;;;;;;;1999.90;999.90;;;0.60;99.90;;;;;;5057903;28;20405;-82
2021/01/31 04:43:09;;;;;;;1999.90;999.90;;;0.60;99.90;;;;;;5058227;28;20624;-82
2021/01/31 04:45:37;;;;;;;1999.90;999.90;;;0.50;99.90;;;;;;5039708;28;20199;-82
2021/01/31 04:48:40;;;;;;;1999.90;999.90;;;0.40;99.90;;;;;;5057471;28;20196;-82
2021/01/31 04:51:27;;;;;;;1999.90;999.90;;;0.40;99.90;;;;;;5057469;28;20528;-82
2021/01/31 04:54:07;;;;;;;1999.90;999.90;;;0.40;99.90;;;;;;5057137;28;20163;-83
2021/01/31 04:56:50;;;;;;;1999.90;999.90;;;0.40;99.90;;;;;;5039492;28;20168;-82
2021/01/31 04:59:22;;;;;;;1999.90;999.90;;;0.40;99.90;;;;;;5040908;28;20515;-82
2021/01/31 05:01:52;;;;;;;1999.90;999.90;;;0.40;99.90;;;;;;5039187;28;20199;-82
2021/01/31 05:04:18;;;;;;;1999.90;999.90;;;0.30;99.90;;;;;;5039165;28;20691;-82
2021/01/31 05:06:48;;;;;;;1999.90;999.90;;;0.40;99.90;;;;;;5038866;28;20214;-82
2021/01/31 05:09:21;;;;;;;1999.90;999.90;;;0.30;99.90;;;;;;5057433;28;20203;-82
2021/01/31 05:11:52;;;;;;;1999.90;999.90;;;0.20;99.90;;;;;;5057408;28;20156;-82
2021/01/31 05:14:55;;;;;;;1999.90;999.90;;;0.20;99.90;;;;;;5056235;28;20159;-82
2021/01/31 05:17:21;;;;;;;1999.90;999.90;;;0.20;99.90;;;;;;5039075;28;20168;-82
2021/01/31 05:19:46;;;;;;;1999.90;999.90;;;0.20;99.90;;;;;;5056677;28;20528;-82
2021/01/31 05:22:17;;;;;;;1999.90;999.90;;;0.10;99.90;;;;;;5057059;28;20168;-82
2021/01/31 05:24:44;;;;;;;1999.90;999.90;;;0.10;99.90;;;;;;5056925;28;20172;-82
2021/01/31 05:27:09;;;;;;;1999.90;999.90;;;0.10;99.90;;;;;;5057167;28;20551;-82
2021/01/31 05:29:38;;;;;;;1999.90;999.90;;;0.10;99.90;;;;;;5038696;28;20251;-85
2021/01/31 05:32:09;;;;;;;1999.90;999.90;;;0.10;99.90;;;;;;5038774;28;20161;-84
2021/01/31 05:34:44;;;;;;;1999.90;999.90;;;0.10;99.90;;;;;;5057053;28;20192;-82
2021/01/31 05:37:25;;;;;;;1999.90;999.90;;;0.10;99.90;;;;;;5057182;28;20664;-82
2021/01/31 05:39:55;;;;;;;1999.90;999.90;;;0.10;99.90;;;;;;5057119;28;20176;-82
2021/01/31 05:42:25;;;;;;;1999.90;999.90;;;0.10;99.90;;;;;;5056851;28;20168;-82
2021/01/31 05:45:08;;;;;;;1999.90;999.90;;;0.00;99.90;;;;;;5057149;28;20192;-83
2021/01/31 05:47:43;;;;;;;1999.90;999.90;;;-0.10;99.90;;;;;;5038662;28;20211;-82
2021/01/31 05:50:37;;;;;;;1999.90;999.90;;;-0.10;99.90;;;;;;5055890;28;20164;-82
2021/01/31 05:53:30;;;;;;;1999.90;999.90;;;0.10;99.90;;;;;;5056630;28;20600;-82
2021/01/31 05:56:23;;;;;;;1999.90;999.90;;;-0.10;99.90;;;;;;5056392;28;20157;-83
2021/01/31 05:59:10;;;;;;;1999.90;999.90;;;-0.10;99.90;;;;;;5038294;28;20187;-82
2021/01/31 06:01:59;;;;;;;1999.90;999.90;;;-0.10;99.90;;;;;;5036776;28;20592;-82
2021/01/31 06:04:26;;;;;;;1999.90;999.90;;;-0.10;99.90;;;;;;5054714;28;20536;-82
2021/01/31 06:07:09;;;;;;;1999.90;999.90;;;-0.10;99.90;;;;;;5054458;28;20210;-82
2021/01/31 06:09:44;;;;;;;1999.90;999.90;;;0.00;99.90;;;;;;5055124;28;20155;-82
2021/01/31 06:12:22;;;;;;;1999.90;999.90;;;-0.10;99.90;;;;;;5054920;28;20141;-82
2021/01/31 06:15:17;;;;;;;1999.90;999.90;;;-0.10;99.90;;;;;;5054838;28;20163;-83
2021/01/31 06:17:53;;;;;;;1999.90;999.90;;;-0.20;99.90;;;;;;5054788;28;20163;-83
2021/01/31 06:20:29;;;;;;;1999.90;999.90;;;-0.20;99.90;;;;;;5054909;28;20508;-82
2021/01/31 06:22:54;;;;;;;1999.90;999.90;;;-0.30;99.90;;;;;;5054649;28;20157;-82
2021/01/31 06:25:26;;;;;;;1999.90;999.90;;;-0.30;99.90;;;;;;5057113;28;20187;-82
2021/01/31 06:28:10;;;;;;;1999.90;999.90;;;-0.30;99.90;;;;;;5058645;28;20415;-82
2021/01/31 06:30:54;;;;;;;1999.90;999.90;;;-0.30;99.90;;;;;;5060733;28;20214;-82
2021/01/31 06:33:20;;;;;;;1999.90;999.90;;;-0.30;99.90;;;;;;5043454;28;20627;-82
2021/01/31 06:35:46;;;;;;;1999.90;999.90;;;-0.30;99.90;;;;;;5042585;28;20172;-82
2021/01/31 06:38:33;;;;;;;1999.90;999.90;;;-0.30;99.90;;;;;;5060015;28;20171;-82
2021/01/31 06:41:15;;;;;;;1999.90;999.90;;;-0.30;99.90;;;;;;5060691;28;20734;-82
2021/01/31 06:43:58;;;;;;;1999.90;999.90;;;-0.30;99.90;;;;;;5059866;28;20674;-82
2021/01/31 06:46:49;;;;;;;1999.90;999.90;;;-0.30;99.90;;;;;;5060168;28;20154;-82
2021/01/31 06:49:45;;;;;;;1999.90;999.90;;;-0.40;99.90;;;;;;5041821;28;20682;-82
2021/01/31 06:52:34;;;;;;;1999.90;999.90;;;-0.40;99.90;;;;;;5060575;28;20210;-82
2021/01/31 06:55:08;;;;;;;1999.90;999.90;;;-0.40;99.90;;;;;;5060935;28;20183;-82
2021/01/31 06:57:56;;;;;;;1999.90;999.90;;;-0.40;99.90;;;;;;5042810;28;20505;-82
2021/01/31 07:01:03;;;;;;;1999.90;999.90;;;-0.30;99.90;;;;;;5060649;28;20195;-82
2021/01/31 07:04:01;;;;;;;1999.90;999.90;;;-0.20;99.90;;;;;;5012168;28;20655;-82
2021/01/31 07:06:46;;;;;;;1999.90;999.90;;;-0.20;99.90;;;;;;5042347;28;20251;-82
2021/01/31 07:09:49;;;;;;;1999.90;999.90;;;-0.20;99.90;;;;;;5060324;28;20202;-84
2021/01/31 07:12:25;;;;;;;1999.90;999.90;;;-0.20;99.90;;;;;;5005004;28;20315;-84
2021/01/31 07:15:09;;;;;;;1999.90;999.90;;;-0.20;99.90;;;;;;5060062;28;20262;-84
2021/01/31 07:17:40;;;;;;;1999.90;999.90;;;-0.20;99.90;;;;;;5043427;28;20646;-82
2021/01/31 07:20:14;;;;;;;1999.90;999.90;;;-0.30;99.90;;;;;;5059921;28;20164;-82
2021/01/31 07:22:57;;;;;;;1999.90;999.90;;;-0.30;99.90;;;;;;5059720;28;20156;-82
2021/01/31 07:26:01;;;;;;;1999.90;999.90;;;-0.30;99.90;;;;;;5041721;28;20562;-82
2021/01/31 07:28:40;;;;;;;1999.90;999.90;;;-0.40;99.90;;;;;;4957490;29;20561;-82
2021/01/31 07:31:17;;;;;;;1999.90;999.90;;;-0.50;99.90;;;;;;4957764;29;20263;-82
2021/01/31 07:33:51;;;;;;;1999.90;999.90;;;-0.50;99.90;;;;;;4959277;29;20299;-82
2021/01/31 07:36:24;;;;;;;1999.90;999.90;;;-0.50;99.90;;;;;;4993252;28;20181;-82
2021/01/31 07:39:03;;;;;;;1999.90;999.90;;;-0.50;99.90;;;;;;5058375;28;20292;-82
2021/01/31 07:41:32;;;;;;;1999.90;999.90;;;-0.50;99.90;;;;;;5040319;28;20190;-83
2021/01/31 07:44:32;;;;;;;1999.90;999.90;;;-0.50;99.90;;;;;;5057182;28;20180;-83
2021/01/31 07:46:59;;;;;;;1999.90;999.90;;;-0.50;99.90;;;;;;5039469;28;20164;-83
2021/01/31 07:49:26;;;;;;;1999.90;999.90;;;-0.40;99.90;;;;;;5038425;28;20173;-83
2021/01/31 07:52:08;;;;;;;1999.90;999.90;;;-0.40;99.90;;;;;;5134018;22;20217;-86
2021/01/31 07:54:39;;;;;;;1999.90;999.90;;;-0.20;99.90;;;;;;5058732;28;20276;-86
2021/01/31 07:57:36;;;;;;;1999.90;999.90;;;-0.30;99.90;;;;;;5042813;28;20165;-86
2021/01/31 08:00:12;;;;;;;1999.90;999.90;;;-0.20;99.90;;;;;;5058186;28;20184;-86
2021/01/31 08:02:41;;;;;;;1999.90;999.90;;;-0.20;99.90;;;;;;5041813;28;20168;-86
2021/01/31 08:05:13;;;;;;;1999.90;999.90;;;-0.20;99.90;;;;;;5041867;28;20204;-86
2021/01/31 08:08:03;;;;;;;1999.90;999.90;;;-0.20;99.90;;;;;;5059775;28;20153;-86
2021/01/31 08:10:48;;;;;;;1999.90;999.90;;;-0.30;99.90;;;;;;5042101;28;20689;-85
2021/01/31 08:13:33;;;;;;;1999.90;999.90;;;-0.30;99.90;;;;;;5059365;28;20164;-86
2021/01/31 08:16:00;;;;;;;1999.90;999.90;;;-0.20;99.90;;;;;;5040874;28;20183;-85
2021/01/31 08:18:26;;;;;;;1999.90;999.90;;;-0.20;99.90;;;;;;5041539;28;20631;-86
2021/01/31 08:20:52;;;;;;;1999.90;999.90;;;-0.30;99.90;;;;;;5041291;28;20224;-86
2021/01/31 08:23:24;;;;;;;1999.90;999.90;;;-0.40;99.90;;;;;;5041180;28;20168;-86
2021/01/31 08:26:01;;;;;;;1999.90;999.90;;;-0.30;99.90;;;;;;5058210;28;20247;-86
2021/01/31 08:28:33;;;;;;;1999.90;999.90;;;-0.30;99.90;;;;;;5041251;28;20737;-86
2021/01/31 08:31:04;;;;;;;1999.90;999.90;;;-0.30;99.90;;;;;;5058966;28;20180;-86
2021/01/31 08:33:32;;;;;;;1999.90;999.90;;;-0.20;99.90;;;;;;5058428;28;20643;-86
2021/01/31 08:36:26;;;;;;;1999.90;999.90;;;-0.20;99.90;;;;;;5040565;28;20585;-86
2021/01/31 08:38:57;;;;;;;1999.90;999.90;;;-0.20;99.90;;;;;;5037553;28;20175;-86
2021/01/31 08:41:26;;;;;;;1999.90;999.90;;;-0.10;99.90;;;;;;5040534;28;20628;-86
2021/01/31 08:43:55;;;;;;;1999.90;999.90;;;0.00;99.90;;;;;;5057923;28;20267;-86
2021/01/31 08:46:21;;;;;;;1999.90;999.90;;;0.00;99.90;;;;;;5040559;28;20225;-87
2021/01/31 08:49:01;;;;;;;1999.90;999.90;;;0.00;99.90;;;;;;5039497;28;20168;-86
2021/01/31 08:51:27;;;;;;;1999.90;999.90;;;0.00;99.90;;;;;;5058226;28;20209;-86
2021/01/31 08:54:07;;;;;;;1999.90;999.90;;;0.00;99.90;;;;;;5057585;28;20165;-86
2021/01/31 08:56:34;;;;;;;1999.90;999.90;;;0.00;99.90;;;;;;5040461;28;20166;-86
2021/01/31 08:59:01;;;;;;;1999.90;999.90;;;0.00;99.90;;;;;;5057998;28;20177;-87
2021/01/31 09:01:27;;;;;;;1999.90;999.90;;;0.10;99.90;;;;;;5040219;28;20180;-86
2021/01/31 09:03:53;;;;;;;1999.90;999.90;;;0.00;99.90;;;;;;5057771;28;20238;-86
2021/01/31 09:06:19;;;;;;;1999.90;999.90;;;0.10;99.90;;;;;;5039386;28;20168;-85
2021/01/31 09:08:51;;;;;;;1999.90;999.90;;;0.20;99.90;;;;;;5040002;28;20165;-86
2021/01/31 09:11:23;;;;;;;1999.90;999.90;;;0.20;99.90;;;;;;5040019;28;20415;-86
2021/01/31 09:13:49;;;;;;;1999.90;999.90;;;0.20;99.90;;;;;;5040144;28;20210;-86
2021/01/31 09:16:25;;;;;;;1999.90;999.90;;;0.20;99.90;;;;;;5056991;28;20172;-86
2021/01/31 09:19:18;;;;;;;1999.90;999.90;;;0.30;99.90;;;;;;5038954;28;20183;-85
2021/01/31 09:21:45;;;;;;;1999.90;999.90;;;0.30;99.90;;;;;;5038754;28;20165;-85
2021/01/31 09:24:15;;;;;;;1999.90;999.90;;;0.40;99.90;;;;;;5039107;28;20192;-86
2021/01/31 09:26:52;;;;;;;1999.90;999.90;;;0.40;99.90;;;;;;5038647;28;20247;-86
2021/01/31 09:29:23;;;;;;;1999.90;999.90;;;0.50;99.90;;;;;;5056790;28;20148;-86
2021/01/31 09:31:54;;;;;;;1999.90;999.90;;;0.50;99.90;;;;;;5057175;28;20196;-86
2021/01/31 09:34:23;;;;;;;1999.90;999.90;;;0.50;99.90;;;;;;5057026;28;20161;-86
2021/01/31 09:37:23;;;;;;;1999.90;999.90;;;0.50;99.90;;;;;;5038402;28;20263;-85
2021/01/31 09:39:51;;;;;;;1999.90;999.90;;;0.60;99.90;;;;;;5036999;28;20661;-85
2021/01/31 09:42:17;;;;;;;1999.90;999.90;;;0.80;99.90;;;;;;5038588;28;20181;-85
2021/01/31 09:45:16;;;;;;;1999.90;999.90;;;0.90;99.90;;;;;;5056089;28;20207;-85
2021/01/31 09:47:45;;;;;;;1999.90;999.90;;;0.90;99.90;;;;;;5054913;28;20184;-86
2021/01/31 09:50:12;;;;;;;1999.90;999.90;;;0.90;99.90;;;;;;5056026;28;20167;-85
2021/01/31 09:52:46;;;;;;;1999.90;999.90;;;0.90;99.90;;;;;;5038837;28;20548;-85
2021/01/31 09:55:38;;;;;;;1999.90;999.90;;;0.90;99.90;;;;;;5055474;28;20164;-85
2021/01/31 09:58:12;;;;;;;1999.90;999.90;;;1.00;99.90;;;;;;5038164;28;20662;-85
2021/01/31 10:00:37;;;;;;;1999.90;999.90;;;1.00;99.90;;;;;;5054758;28;20586;-85
2021/01/31 10:03:15;;;;;;;1999.90;999.90;;;1.10;99.90;;;;;;5037084;28;20175;-85
2021/01/31 10:05:41;;;;;;;1999.90;999.90;;;1.10;99.90;;;;;;5037311;28;20646;-86
2021/01/31 10:08:14;;;;;;;1999.90;999.90;;;1.10;99.90;;;;;;5038141;28;20169;-85
2021/01/31 10:10:42;;;;;;;1999.90;999.90;;;1.10;99.90;;;;;;5057183;28;20168;-87
2021/01/31 10:13:15;;;;;;;1999.90;999.90;;;1.10;99.90;;;;;;5056128;28;20208;-86
2021/01/31 10:15:42;;;;;;;1999.90;999.90;;;1.20;99.90;;;;;;5055372;28;20160;-85
2021/01/31 10:18:25;;;;;;;1999.90;999.90;;;1.10;99.90;;;;;;5054895;28;20218;-86
2021/01/31 10:21:10;;;;;;;1999.90;999.90;;;1.10;99.90;;;;;;5055646;28;20140;-84
2021/01/31 10:23:36;;;;;;;1999.90;999.90;;;1.10;99.90;;;;;;5054546;28;20208;-85
2021/01/31 10:26:02;;;;;;;1999.90;999.90;;;1.10;99.90;;;;;;5054630;28;20184;-85
2021/01/31 10:28:34;;;;;;;1999.90;999.90;;;1.20;99.90;;;;;;5054677;28;20161;-84
2021/01/31 10:30:59;;;;;;;1999.90;999.90;;;1.30;99.90;;;;;;5054597;28;20252;-86
2021/01/31 10:33:59;;;;;;;1999.90;999.90;;;1.30;99.90;;;;;;5036833;28;20196;-85
2021/01/31 10:36:33;;;;;;;1999.90;999.90;;;1.40;99.90;;;;;;5001552;28;20176;-84
2021/01/31 10:39:23;;;;;;;1999.90;999.90;;;1.40;99.90;;;;;;5036795;28;20161;-86
2021/01/31 10:41:49;;;;;;;1999.90;999.90;;;1.50;99.90;;;;;;5054506;28;20165;-85
2021/01/31 10:44:26;;;;;;;1999.90;999.90;;;1.50;99.90;;;;;;5054488;28;20268;-85
2021/01/31 10:46:53;;;;;;;1999.90;999.90;;;1.40;99.90;;;;;;5036993;28;20414;-85
2021/01/31 10:49:19;;;;;;;1999.90;999.90;;;1.40;99.90;;;;;;5036930;28;20172;-85
2021/01/31 10:51:45;;;;;;;1999.90;999.90;;;1.50;99.90;;;;;;5054442;28;20177;-86
2021/01/31 10:54:13;;;;;;;1999.90;999.90;;;1.60;99.90;;;;;;5036762;28;20169;-85
2021/01/31 10:56:38;;;;;;;1999.90;999.90;;;1.70;99.90;;;;;;5054931;28;20395;-84
2021/01/31 10:59:05;;;;;;;1999.90;999.90;;;1.70;99.90;;;;;;5037320;28;20172;-85
2021/01/31 11:01:31;;;;;;;1999.90;999.90;;;1.70;99.90;;;;;;5037029;28;20179;-85
2021/01/31 11:03:57;;;;;;;1999.90;999.90;;;1.70;99.90;;;;;;5055925;28;20326;-85
2021/01/31 11:06:23;;;;;;;1999.90;999.90;;;1.80;99.90;;;;;;5054895;28;20168;-85
2021/01/31 11:08:51;;;;;;;1999.90;999.90;;;1.90;99.90;;;;;;5054941;28;20164;-87
2021/01/31 11:11:17;;;;;;;1999.90;999.90;;;1.90;99.90;;;;;;5056884;28;20215;-84
2021/01/31 11:13:43;;;;;;;1999.90;999.90;;;1.90;99.90;;;;;;5042165;28;20226;-84
2021/01/31 11:16:09;;;;;;;1999.90;999.90;;;1.80;99.90;;;;;;5060255;28;20160;-85
2021/01/31 11:18:34;;;;;;;1999.90;999.90;;;1.90;99.90;;;;;;5060181;28;20214;-84
2021/01/31 11:21:00;;;;;;;1999.90;999.90;;;2.00;99.90;;;;;;5041928;28;20199;-86
2021/01/31 11:23:26;;;;;;;1999.90;999.90;;;2.10;99.90;;;;;;5059424;28;20546;-84
2021/01/31 11:25:51;;;;;;;1999.90;999.90;;;2.10;99.90;;;;;;5039098;28;20631;-86
2021/01/31 11:28:17;;;;;;;1999.90;999.90;;;2.10;99.90;;;;;;5039336;28;20165;-84
2021/01/31 11:30:44;;;;;;;1999.90;999.90;;;2.20;99.90;;;;;;5039646;28;20175;-85
2021/01/31 11:33:12;;;;;;;1999.90;999.90;;;2.20;99.90;;;;;;5057266;28;20160;-84
2021/01/31 11:35:38;;;;;;;1999.90;999.90;;;2.30;99.90;;;;;;5056813;28;20198;-84
2021/01/31 11:38:05;;;;;;;1999.90;999.90;;;2.40;99.90;;;;;;5057021;28;20500;-84
2021/01/31 11:40:30;;;;;;;1999.90;999.90;;;2.40;99.90;;;;;;5038626;28;20170;-84
2021/01/31 11:42:56;;;;;;;1999.90;999.90;;;2.50;99.90;;;;;;5038881;28;20259;-83
2021/01/31 11:45:24;;;;;;;1999.90;999.90;;;2.50;99.90;;;;;;5057535;28;20446;-84
2021/01/31 11:47:51;;;;;;;1999.90;999.90;;;2.60;99.90;;;;;;5056959;28;20173;-84
2021/01/31 11:50:18;;;;;;;1999.90;999.90;;;2.60;99.90;;;;;;5038566;28;20191;-86
2021/01/31 11:52:45;;;;;;;1999.90;999.90;;;2.60;99.90;;;;;;5038407;28;20168;-86
2021/01/31 11:55:11;;;;;;;1999.90;999.90;;;2.70;99.90;;;;;;5056309;28;20569;-86
2021/01/31 11:57:38;;;;;;;1999.90;999.90;;;2.70;99.90;;;;;;5038226;28;20636;-86
2021/01/31 12:00:06;;;;;;;1999.90;999.90;;;2.70;99.90;;;;;;5039109;28;20164;-86
2021/01/31 12:02:37;;;;;;;1999.90;999.90;;;2.70;99.90;;;;;;5038217;28;20196;-85
2021/01/31 12:05:03;;;;;;;1999.90;999.90;;;2.60;99.90;;;;;;5056338;28;20208;-86
2021/01/31 12:07:29;;;;;;;1999.90;999.90;;;2.60;99.90;;;;;;5056089;28;20243;-86
2021/01/31 12:09:55;;;;;;;1999.90;999.90;;;2.50;99.90;;;;;;5056984;28;20599;-86
2021/01/31 12:12:21;;;;;;;1999.90;999.90;;;2.60;99.90;;;;;;5038614;28;20164;-86
2021/01/31 12:14:46;;;;;;;1999.90;999.90;;;2.50;99.90;;;;;;5055992;28;20172;-86
2021/01/31 12:17:12;;;;;;;1999.90;999.90;;;2.60;99.90;;;;;;5038409;28;20168;-86
2021/01/31 12:19:37;;;;;;;1999.90;999.90;;;2.70;99.90;;;;;;5056061;28;20176;-85
2021/01/31 12:22:04;;;;;;;1999.90;999.90;;;2.70;99.90;;;;;;5055677;28;20161;-87
2021/01/31 12:24:30;;;;;;;1999.90;999.90;;;2.60;99.90;;;;;;5038437;28;20195;-85
2021/01/31 12:26:55;;;;;;;1999.90;999.90;;;2.70;99.90;;;;;;5038050;28;20172;-86
2021/01/31 12:29:21;;;;;;;1999.90;999.90;;;2.70;99.90;;;;;;5038630;28;20169;-86
2021/01/31 12:31:47;;;;;;;1999.90;999.90;;;2.70;99.90;;;;;;5055946;28;20918;-86
2021/01/31 12:34:13;;;;;;;1999.90;999.90;;;2.70;99.90;;;;;;5056455;28;20176;-86
2021/01/31 12:36:40;;;;;;;1999.90;999.90;;;2.70;99.90;;;;;;5038377;28;20438;-86